Flight Track Log - Related Links

Times and Time Zones

All times are in EDT time to prevent confusion due to time zone crossing. See the SWA962 flight status page for this flight to view local times or setup timezone preferences in your user account.

Time Position Orientation Groundspeed Altitude Reporting Facility
EDT Latitude Longitude Course Direction KTS MPH feet Rate Location/Type
Wed 09:13:32 AM 45.5850 -122.5739 106° East 143 165 800  Level Seattle Center
Wed 09:14:08 AM 45.5781 -122.5397 106° East 170 196 1,600 1,979 Climbing Seattle Center
Wed 09:15:09 AM 45.5631 -122.4439 103° East 253 291 4,000 2,617 Climbing Seattle Center
Wed 09:15:42 AM 45.5544 -122.3978 105° East 239 275 5,700 3,806 Climbing Seattle Center
Wed 09:16:42 AM 45.5050 -122.3167 131° Southeast 276 318 9,900 3,669 Climbing Seattle Center
Wed 09:17:43 AM 45.4422 -122.2306 136° Southeast 307 353 13,100 3,322 Climbing Seattle Center
Wed 09:18:43 AM 45.3722 -122.1397 138° Southeast 335 386 16,600 3,223 Climbing Seattle Center
Wed 09:19:44 AM 45.2961 -122.0442 139° Southeast 357 411 19,600 2,926 Climbing Seattle Center
Wed 09:20:44 AM 45.2142 -121.9428 139° Southeast 383 441 22,500 2,727 Climbing Seattle Center
Wed 09:21:45 AM 45.1258 -121.8314 138° Southeast 400 460 25,100 2,479 Climbing Seattle Center
Wed 09:22:45 AM 45.0383 -121.7239 139° Southeast 415 478 27,500 2,083 Climbing Seattle Center
Wed 09:23:46 AM 44.9483 -121.6128 139° Southeast 430 495 29,300 1,770 Climbing Seattle Center
Wed 09:24:47 AM 44.8556 -121.4975 139° Southeast 445 512 31,100 1,884 Climbing Seattle Center
Wed 09:25:47 AM 44.7594 -121.3811 139° Southeast 455 524 33,100 2,083 Climbing Seattle Center
Wed 09:26:48 AM 44.6658 -121.2667 139° Southeast 451 519 35,300 1,835 Climbing Seattle Center
Wed 09:27:48 AM 44.5614 -121.1417 140° Southeast 448 516 36,800 1,388 Climbing Seattle Center
Wed 09:28:49 AM 44.4636 -121.0211 139° Southeast 460 529 38,100 1,082 Climbing Seattle Center
Wed 09:29:50 AM 44.3619 -120.9014 140° Southeast 466 536 39,000 446 Climbing Seattle Center
Wed 09:30:50 AM 44.2794 -120.8025 139° Southeast 467 537 39,000  Level Seattle Center
Wed 09:31:51 AM 44.1817 -120.6867 140° Southeast 465 535 39,000 295 Level Seattle Center
Wed 09:32:52 AM 44.0842 -120.5736 140° Southeast 461 531 39,600 793 Climbing Seattle Center
Wed 09:33:52 AM 43.9647 -120.4319 139° Southeast 470 541 40,600 694 Climbing Seattle Center
Wed 09:34:53 AM 43.8633 -120.3111 139° Southeast 480 552 41,000 197 Climbing Seattle Center
Wed 09:35:54 AM 43.7611 -120.1936 140° Southeast 480 552 41,000  Level Seattle Center
Wed 09:36:54 AM 43.6594 -120.0756 140° Southeast 478 550 41,000  Level Seattle Center
Wed 09:37:55 AM 43.5578 -119.9597 140° Southeast 477 549 41,000  Level Seattle Center
Wed 09:38:56 AM 43.4556 -119.8417 140° Southeast 479 551 41,000  Level Seattle Center
Wed 09:39:56 AM 43.3539 -119.7247 140° Southeast 478 550 41,000  Level Seattle Center
Wed 09:40:57 AM 43.2583 -119.6164 140° Southeast 477 549 41,000  Level Seattle Center
Wed 09:41:58 AM 43.1547 -119.4992 140° Southeast 481 554 41,000  Level Seattle Center
Wed 09:42:58 AM 43.0317 -119.3611 141° Southeast 478 550 41,000  Level Seattle Center
Wed 09:43:59 AM 42.9353 -119.2511 140° Southeast 486 559 41,000  Level Seattle Center
Wed 09:45:00 AM 42.8419 -119.1367 138° Southeast 476 548 41,000  Level Seattle Center
Wed 09:46:00 AM 42.7342 -118.9978 137° Southeast 475 547 41,000  Level Seattle Center
Wed 09:47:01 AM 42.6431 -118.8828 137° Southeast 471 542 41,000  Level Seattle Center
Wed 09:48:02 AM 42.5508 -118.7667 137° Southeast 473 544 41,000  Level Seattle Center
Wed 09:49:10 AM 42.4275 -118.6128 137° Southeast 472 543 41,000  Level Salt Lake Center
Wed 09:50:11 AM 42.3306 -118.4908 137° Southeast 477 549 41,000  Level Salt Lake Center
Wed 09:51:13 AM 42.2369 -118.3769 138° Southeast 474 545 41,000  Level Salt Lake Center
Wed 09:52:14 AM 42.1433 -118.2597 137° Southeast 478 550 41,000  Level Salt Lake Center
Wed 09:53:16 AM 42.0333 -118.1244 138° Southeast 479 551 41,000  Level Salt Lake Center
Wed 09:54:17 AM 41.9386 -118.0100 138° Southeast 478 550 41,000  Level Salt Lake Center
Wed 09:55:19 AM 41.8297 -117.8761 137° Southeast 475 547 41,000  Level Salt Lake Center
Wed 09:56:20 AM 41.7358 -117.7633 138° Southeast 473 544 41,000  Level Salt Lake Center
Wed 09:57:22 AM 41.6267 -117.6306 138° Southeast 474 545 41,000  Level Salt Lake Center
Wed 09:58:23 AM 41.5331 -117.5167 138° Southeast 475 547 41,000  Level Salt Lake Center
Wed 09:59:25 AM 41.4386 -117.4047 138° Southeast 474 545 41,000  Level Salt Lake Center
Wed 10:00:26 AM 41.3289 -117.2722 138° Southeast 476 548 41,000  Level Salt Lake Center
Wed 10:01:28 AM 41.2336 -117.1606 139° Southeast 476 548 41,000  Level Salt Lake Center
Wed 10:02:30 AM 41.1250 -117.0297 138° Southeast 473 544 41,000  Level Salt Lake Center
Wed 10:03:31 AM 41.0294 -116.9183 139° Southeast 474 545 41,000  Level Salt Lake Center
Wed 10:04:33 AM 40.9347 -116.8078 139° Southeast 474 545 41,000  Level Salt Lake Center
Wed 10:05:34 AM 40.8222 -116.6767 139° Southeast 477 549 41,000  Level Salt Lake Center
Wed 10:06:36 AM 40.7261 -116.5650 139° Southeast 477 549 41,000  Level Salt Lake Center
Wed 10:07:38 AM 40.6306 -116.4536 138° Southeast 475 547 41,000  Level Salt Lake Center
Wed 10:08:39 AM 40.5183 -116.3231 138° Southeast 478 550 41,000  Level Salt Lake Center
Wed 10:09:41 AM 40.4194 -116.2108 139° Southeast 484 557 41,000  Level Salt Lake Center
Wed 10:10:42 AM 40.3028 -116.0783 139° Southeast 492 566 41,000  Level Salt Lake Center
Wed 10:11:44 AM 40.2053 -115.9658 139° Southeast 489 563 41,000  Level Salt Lake Center
Wed 10:12:45 AM 40.1089 -115.8544 139° Southeast 484 557 41,000  Level Salt Lake Center
Wed 10:13:47 AM 39.9947 -115.7264 139° Southeast 482 555 41,000  Level Salt Lake Center
Wed 10:14:48 AM 39.8972 -115.6172 139° Southeast 482 555 41,000  Level Salt Lake Center
Wed 10:15:50 AM 39.7800 -115.4914 140° Southeast 485 558 41,000  Level Salt Lake Center
Wed 10:16:52 AM 39.6850 -115.3811 138° Southeast 481 554 41,000  Level Salt Lake Center
Wed 10:17:53 AM 39.5886 -115.2725 139° Southeast 481 554 41,000  Level Salt Lake Center
Wed 10:18:55 AM 39.4742 -115.1478 140° Southeast 480 552 41,000  Level Salt Lake Center
Wed 10:19:57 AM 39.3750 -115.0414 140° Southeast 483 556 41,000  Level Salt Lake Center
Wed 10:20:58 AM 39.2603 -114.9164 140° Southeast 483 556 41,000  Level Salt Lake Center
Wed 10:22:00 AM 39.1658 -114.8139 140° Southeast 483 556 41,000  Level Salt Lake Center
Wed 10:23:02 AM 39.0639 -114.6994 139° Southeast 486 559 41,000  Level Salt Lake Center
Wed 10:24:04 AM 38.9406 -114.5661 140° Southeast 485 558 41,000  Level Salt Lake Center
Wed 10:25:05 AM 38.8381 -114.4553 140° Southeast 483 556 41,000  Level Salt Lake Center
Wed 10:26:07 AM 38.7342 -114.3439 140° Southeast 487 560 41,000  Level Salt Lake Center
Wed 10:27:09 AM 38.6308 -114.2336 140° Southeast 484 557 41,000  Level Salt Lake Center
Wed 10:28:10 AM 38.5269 -114.1236 140° Southeast 486 559 41,000  Level Salt Lake Center
Wed 10:29:12 AM 38.4239 -114.0133 140° Southeast 485 558 41,000  Level Salt Lake Center
Wed 10:30:14 AM 38.3203 -113.9050 141° Southeast 483 556 41,000  Level Salt Lake Center
Wed 10:31:16 AM 38.1886 -113.7939 146° Southeast 479 551 41,000  Level Salt Lake Center
Wed 10:32:17 AM 38.0753 -113.7172 152° Southeast 464 534 41,000  Level Salt Lake Center
Wed 10:33:19 AM 37.9617 -113.6400 152° Southeast 465 535 41,000  Level Salt Lake Center
Wed 10:34:21 AM 37.8483 -113.5625 152° Southeast 466 536 41,000  Level Salt Lake Center
Wed 10:35:23 AM 37.7367 -113.4875 152° Southeast 459 528 41,000  Level Salt Lake Center
Wed 10:36:25 AM 37.6250 -113.4128 152° Southeast 458 527 41,000  Level Salt Lake Center
Wed 10:37:26 AM 37.4919 -113.3242 152° Southeast 456 525 41,000 -293 Level Salt Lake Center
Wed 10:38:28 AM 37.3825 -113.2503 152° Southeast 452 520 40,400 -726 Descending Salt Lake Center
Wed 10:39:30 AM 37.2717 -113.1761 152° Southeast 455 524 39,500 -919 Descending Salt Lake Center
Wed 10:40:32 AM 37.1592 -113.1006 152° Southeast 461 531 38,500 -968 Descending Salt Lake Center
Wed 10:41:34 AM 37.0464 -113.0261 152° Southeast 461 531 37,500 -1,366 Descending Salt Lake Center
Wed 10:42:35 AM 36.9111 -112.9372 152° Southeast 460 529 35,700 -1,659 Descending Salt Lake Center
Wed 10:43:37 AM 36.7978 -112.8625 152° Southeast 461 531 34,100 -1,306 Descending Salt Lake Center
Wed 10:44:39 AM 36.6839 -112.7881 152° Southeast 463 533 33,000 -647 Descending Salt Lake Center
Wed 10:45:19 AM 36.6381 -112.7581 152° Southeast 462 532 33,000  Level Los Angeles Center
Wed 10:46:21 AM 36.5022 -112.6697 152° Southeast 460 529 33,000  Level Los Angeles Center
Wed 10:47:23 AM 36.3878 -112.5950 152° Southeast 463 533 33,000  Level Los Angeles Center
Wed 10:48:25 AM 36.2494 -112.5119 154° Southeast 464 534 33,000 -244 Level Los Angeles Center
Wed 10:49:26 AM 36.1222 -112.4975 175° South 459 528 32,500 -732 Descending Los Angeles Center
Wed 10:50:28 AM 35.9939 -112.4881 177° South 461 531 31,500 -1,113 Descending Los Angeles Center
Wed 10:51:30 AM 35.8558 -112.4764 176° South 455 524 30,200 -1,210 Descending Los Angeles Center
Wed 10:52:32 AM 35.7328 -112.4656 176° South 447 514 29,000 -581 Descending Los Angeles Center
Wed 10:53:34 AM 35.6106 -112.4550 176° South 440 506 29,000  Level Los Angeles Center
Wed 10:54:36 AM 35.4883 -112.4469 177° South 438 504 29,000  Level Los Angeles Center
Wed 10:55:50 AM 35.3667 -112.4322 174° South 436 502 29,000  Level Los Angeles Center
Wed 10:56:32 AM 35.2458 -112.4053 170° South 438 504 29,000  Level Albuquerque Center
Wed 10:57:34 AM 35.1258 -112.3783 170° South 437 503 29,000 -144 Level Albuquerque Center
Wed 10:58:37 AM 35.0058 -112.3519 170° South 437 503 28,700 -1,306 Descending Albuquerque Center
Wed 10:59:38 AM 34.8883 -112.3275 170° South 434 499 26,300 -1,317 Descending Albuquerque Center
Wed 11:00:40 AM 34.7731 -112.3028 170° South 428 493 26,000 -1,016 Descending Albuquerque Center
Wed 11:01:42 AM 34.6583 -112.2778 170° South 424 488 24,200 -2,226 Descending Albuquerque Center
Wed 11:02:44 AM 34.5278 -112.2492 170° South 411 473 21,400 -2,032 Descending Albuquerque Center
Wed 11:03:46 AM 34.4236 -112.2258 170° South 397 457 20,000 -1,392 Descending Albuquerque Center
Wed 11:04:49 AM 34.3258 -112.1989 167° South 380 437 18,500 -1,632 Descending Albuquerque Center
Wed 11:05:51 AM 34.2339 -112.1750 168° South 359 413 16,600 -1,839 Descending Albuquerque Center
Wed 11:06:53 AM 34.1428 -112.1508 168° South 340 391 14,700 -1,500 Descending Albuquerque Center
Wed 11:07:55 AM 34.0369 -112.1411 176° South 320 368 13,500 -1,065 Descending Albuquerque Center
Wed 11:08:57 AM 33.9503 -112.1514 186° South 318 366 12,500 -677 Descending Albuquerque Center
Wed 11:09:59 AM 33.8719 -112.1631 187° South 286 329 12,100 -629 Descending Albuquerque Center
Wed 11:11:01 AM 33.8036 -112.1778 190° South 255 293 11,200 -1,065 Descending Albuquerque Center
Wed 11:12:03 AM 33.7392 -112.1911 190° South 239 275 9,900 -1,016 Descending Albuquerque Center
Wed 11:13:05 AM 33.6681 -112.2058 190° South 215 247 9,100 -919 Descending Albuquerque Center
Wed 11:14:07 AM 33.6169 -112.2172 191° South 191 220 8,000 -1,113 Descending Albuquerque Center
Wed 11:15:09 AM 33.5661 -112.2306 192° South 187 215 6,800 -1,161 Descending Albuquerque Center
Wed 11:16:11 AM 33.5175 -112.2494 198° South 186 214 5,600 -1,161 Descending Albuquerque Center
Wed 11:17:13 AM 33.4708 -112.2369 167° South 190 219 4,400 -1,161 Descending Albuquerque Center
Wed 11:18:15 AM 33.4436 -112.1853 122° Southeast 187 215 3,200 -865 Descending Albuquerque Center
Wed 11:19:04 AM 33.4333 -112.1167 100° East 180 207 2,800 -678 Descending Phoenix TRACON
Wed 11:20:10 AM 33.4333 -112.0667 90° East 133 153 1,900 -818 Descending Phoenix TRACON

Login

Don't have an account? Register now (free) for customized features, flight alerts, and more!